Time;durP1;ratioP1;P1;durP2;ratioP2;P2;SDS_P1;SDS_P2;PMS_P1;PMS_P2;Temp;Humidity;BMP_temperature;BMP_pressure;BME280_temperature;BME280_humidity;BME280_pressure;Samples;Min_cycle;Max_cycle;Signal;HPM_P1;HPM_P2
2023/05/02 04:39:57;;;;;;;3.50;2.30;;;;;;;5.34;91.11;101059.55;107055;1278;23157;-56
2023/05/02 04:42:26;;;;;;;5.40;2.30;;;;;;;5.53;89.74;101061.57;109010;1278;22353;-47
2023/05/02 04:44:59;;;;;;;7.90;3.20;;;;;;;5.70;88.70;101063.33;109891;1278;22805;-46
2023/05/02 04:47:26;;;;;;;5.40;2.60;;;;;;;5.86;88.45;101061.41;109475;1278;22407;-56
2023/05/02 04:49:53;;;;;;;8.50;3.20;;;;;;;6.04;87.77;101067.19;109828;1278;22535;-48
2023/05/02 04:52:20;;;;;;;5.10;2.70;;;;;;;6.21;87.59;101069.25;108985;1275;22204;-55
2023/05/02 04:54:47;;;;;;;4.90;2.60;;;;;;;6.40;87.10;101068.59;108763;1277;22506;-57
2023/05/02 04:57:14;;;;;;;5.80;3.70;;;;;;;6.58;86.02;101069.64;108736;1279;24539;-49
2023/05/02 04:59:45;;;;;;;3.90;2.90;;;;;;;6.76;85.97;101071.20;108721;1278;22960;-48
2023/05/02 05:02:13;;;;;;;10.20;3.10;;;;;;;6.96;85.75;101072.09;108263;1272;22962;-55
2023/05/02 05:04:41;;;;;;;10.80;4.00;;;;;;;7.16;85.43;101071.23;109109;1273;22661;-56
2023/05/02 05:07:08;;;;;;;7.80;4.10;;;;;;;7.35;85.23;101071.52;108955;1273;22651;-56
2023/05/02 05:09:35;;;;;;;9.10;5.50;;;;;;;7.52;85.02;101068.66;107236;1277;25322;-54
2023/05/02 05:12:02;;;;;;;9.10;4.80;;;;;;;7.71;85.18;101068.08;109935;1278;22175;-55
2023/05/02 05:14:32;;;;;;;10.10;5.60;;;;;;;7.90;84.47;101069.75;109779;1278;22395;-55
2023/05/02 05:17:01;;;;;;;18.00;6.60;;;;;;;8.11;83.35;101071.79;109632;1275;22331;-47
2023/05/02 05:19:29;;;;;;;20.50;11.60;;;;;;;8.31;82.75;101069.45;109696;1279;22417;-47
2023/05/02 05:21:56;;;;;;;19.50;9.80;;;;;;;8.52;81.99;101069.58;109667;1275;22852;-47
2023/05/02 05:24:23;;;;;;;15.80;7.70;;;;;;;8.72;81.40;101072.77;109564;1276;22385;-47
2023/05/02 05:26:52;;;;;;;14.60;7.70;;;;;;;8.93;80.07;101072.83;109336;1275;352153;-55
2023/05/02 05:29:19;;;;;;;9.10;6.50;;;;;;;9.15;79.13;101070.10;109425;1273;22668;-47
2023/05/02 05:31:46;;;;;;;7.80;5.10;;;;;;;9.36;78.13;101069.77;109471;1275;23713;-50
2023/05/02 05:34:16;;;;;;;12.50;4.60;;;;;;;9.57;77.04;101071.16;109057;1257;23784;-56
2023/05/02 05:36:44;;;;;;;11.10;3.50;;;;;;;9.77;74.81;101070.09;108743;1275;22521;-56
2023/05/02 05:39:31;;;;;;;8.20;3.00;;;;;;;9.98;72.84;101064.66;109273;1273;26936;-47
2023/05/02 05:42:01;;;;;;;5.70;2.00;;;;;;;10.17;70.93;101066.34;108928;1278;22551;-49
2023/05/02 05:44:41;;;;;;;11.90;2.20;;;;;;;10.38;64.88;101066.81;108341;1274;22860;-55
2023/05/02 05:47:12;;;;;;;5.10;2.00;;;;;;;10.64;63.05;101068.02;108749;1277;22550;-57
2023/05/02 05:49:40;;;;;;;2.70;1.50;;;;;;;10.88;61.63;101070.89;109570;1273;22468;-56
2023/05/02 05:52:08;;;;;;;3.40;1.50;;;;;;;11.09;57.80;101069.55;109623;1273;22397;-47
2023/05/02 05:54:35;;;;;;;2.40;1.40;;;;;;;11.29;55.33;101070.80;109055;1276;22403;-56
2023/05/02 05:57:02;;;;;;;5.00;1.50;;;;;;;11.45;54.54;101066.92;109678;1275;22502;-55
2023/05/02 05:59:35;;;;;;;4.40;1.40;;;;;;;11.64;54.67;101069.52;109585;1273;22169;-47
2023/05/02 06:02:02;;;;;;;2.20;1.40;;;;;;;11.82;53.36;101069.15;109625;1274;23371;-46
2023/05/02 06:04:30;;;;;;;2.30;1.20;;;;;;;12.00;51.23;101073.83;109656;1271;22551;-46
2023/05/02 06:06:58;;;;;;;1.70;0.90;;;;;;;12.15;48.63;101073.92;109740;1273;22308;-48
2023/05/02 06:09:25;;;;;;;5.00;1.40;;;;;;;12.29;48.10;101073.65;109826;1273;23077;-49
2023/05/02 06:11:52;;;;;;;5.00;1.20;;;;;;;12.44;48.22;101075.31;109746;1275;22380;-58
2023/05/02 06:14:19;;;;;;;3.60;1.40;;;;;;;12.59;47.00;101072.23;109412;1273;22780;-49
2023/05/02 06:16:50;;;;;;;3.20;1.10;;;;;;;12.72;46.23;101074.38;108848;1273;22547;-48
2023/05/02 06:19:18;;;;;;;4.80;1.40;;;;;;;12.85;44.80;101069.52;108427;1273;23593;-46
2023/05/02 06:21:46;;;;;;;4.80;1.60;;;;;;;12.95;43.93;101064.98;109399;1276;23141;-47
2023/05/02 06:24:13;;;;;;;2.90;1.60;;;;;;;13.04;42.39;101063.95;108932;1276;22556;-47
2023/05/02 06:26:40;;;;;;;1.70;1.20;;;;;;;13.13;42.31;101069.58;109812;1274;22401;-46
2023/05/02 06:29:08;;;;;;;2.80;1.20;;;;;;;13.24;42.64;101072.08;109549;1273;22831;-48
2023/05/02 06:31:35;;;;;;;7.10;1.30;;;;;;;13.34;41.74;101069.82;109532;1278;22439;-56
2023/05/02 06:34:02;;;;;;;4.60;1.10;;;;;;;13.46;40.69;101067.55;109479;1276;22263;-53
2023/05/02 06:36:30;;;;;;;5.60;1.00;;;;;;;13.58;41.16;101067.90;109741;1279;23129;-47
2023/05/02 06:38:57;;;;;;;1.10;0.80;;;;;;;13.72;40.28;101068.07;109514;1276;25968;-55
2023/05/02 06:41:24;;;;;;;3.90;1.40;;;;;;;13.81;38.07;101067.36;108886;1272;22464;-47
2023/05/02 06:43:51;;;;;;;8.10;1.00;;;;;;;13.89;36.98;101059.98;108845;1274;22358;-57
2023/05/02 06:46:19;;;;;;;3.70;0.90;;;;;;;13.96;35.80;101059.80;109567;1273;22896;-48
2023/05/02 06:48:47;;;;;;;2.00;1.40;;;;;;;14.04;35.61;101059.80;108962;1273;22574;-48
2023/05/02 06:51:14;;;;;;;2.20;0.90;;;;;;;14.13;34.18;101063.96;109681;1272;22605;-56
2023/05/02 06:53:41;;;;;;;4.30;0.90;;;;;;;14.23;34.44;101065.17;108846;1275;22524;-56
2023/05/02 06:56:09;;;;;;;6.80;1.40;;;;;;;14.33;34.47;101062.86;109515;1276;22853;-48
2023/05/02 06:58:36;;;;;;;3.60;1.00;;;;;;;14.44;33.67;101064.58;108801;1275;22401;-57
2023/05/02 07:01:02;;;;;;;3.90;1.20;;;;;;;14.52;34.08;101066.69;108865;1273;23131;-59
2023/05/02 07:03:29;;;;;;;2.70;1.10;;;;;;;14.60;33.87;101069.11;108710;1274;22271;-48
2023/05/02 07:05:58;;;;;;;3.00;0.60;;;;;;;14.71;32.48;101072.92;109515;1274;22883;-47
2023/05/02 07:08:25;;;;;;;2.60;1.40;;;;;;;14.76;31.40;101072.55;109529;1272;23794;-47
2023/05/02 07:10:53;;;;;;;1.40;1.10;;;;;;;14.78;32.42;101073.59;109609;1277;22342;-48
2023/05/02 07:13:20;;;;;;;8.80;1.40;;;;;;;14.83;31.96;101070.41;109452;1275;22803;-57
2023/05/02 07:15:46;;;;;;;7.50;1.10;;;;;;;14.88;31.35;101072.31;109410;1274;23739;-48
2023/05/02 07:18:14;;;;;;;3.00;1.20;;;;;;;14.90;31.08;101074.24;109524;1273;22913;-57
2023/05/02 07:20:41;;;;;;;4.10;1.00;;;;;;;14.94;30.72;101076.49;108894;1278;22950;-49
2023/05/02 07:23:08;;;;;;;3.00;0.90;;;;;;;14.96;30.30;101081.77;109127;1273;22372;-58
2023/05/02 07:25:36;;;;;;;2.80;1.00;;;;;;;15.00;31.05;101080.52;109492;1279;22202;-57
2023/05/02 07:28:04;;;;;;;5.30;1.10;;;;;;;15.06;30.60;101077.14;108044;1273;22491;-57
2023/05/02 07:30:32;;;;;;;5.40;1.00;;;;;;;15.06;29.20;101076.60;109235;1273;22612;-57
2023/05/02 07:33:01;;;;;;;9.10;1.70;;;;;;;15.04;28.98;101074.52;109146;1274;23320;-49
2023/05/02 07:35:29;;;;;;;5.00;1.60;;;;;;;15.07;29.71;101077.83;109023;1267;22435;-48
2023/05/02 07:37:56;;;;;;;5.40;1.60;;;;;;;15.19;29.84;101076.52;109390;1273;23014;-56
2023/05/02 07:40:23;;;;;;;2.40;1.10;;;;;;;15.32;30.12;101081.70;108801;1273;22383;-48
2023/05/02 07:42:50;;;;;;;5.30;1.00;;;;;;;15.42;30.62;101079.88;109604;1273;23174;-48
2023/05/02 07:45:17;;;;;;;1.40;0.80;;;;;;;15.53;30.50;101080.66;109683;1273;22397;-56
2023/05/02 07:47:45;;;;;;;7.40;1.20;;;;;;;15.63;29.89;101083.77;109354;1273;23147;-47
2023/05/02 07:50:22;;;;;;;3.10;1.10;;;;;;;15.72;29.71;101080.55;109321;1273;22356;-56
2023/05/02 07:53:06;;;;;;;3.60;1.20;;;;;;;15.86;29.44;101080.41;108721;1275;22358;-48
2023/05/02 07:55:33;;;;;;;8.60;1.30;;;;;;;15.94;28.43;101079.46;108926;1272;22626;-47
2023/05/02 07:58:00;;;;;;;1.30;0.90;;;;;;;15.94;28.09;101080.34;108810;1277;22408;-47
2023/05/02 08:00:29;;;;;;;8.60;1.60;;;;;;;15.92;28.03;101084.94;109257;1273;22557;-55
2023/05/02 08:02:57;;;;;;;8.60;1.30;;;;;;;15.92;28.08;101083.35;109433;1265;22395;-47
2023/05/02 08:05:49;;;;;;;1.50;0.80;;;;;;;15.91;27.98;101084.41;109392;1273;22405;-47
2023/05/02 08:08:28;;;;;;;6.10;1.00;;;;;;;15.82;28.14;101082.73;109035;1273;23668;-56
2023/05/02 08:11:01;;;;;;;1.80;0.80;;;;;;;15.79;28.18;101078.91;109036;1273;22242;-47
2023/05/02 08:14:36;;;;;;;6.70;1.20;;;;;;;15.90;29.00;101080.55;109148;1273;22355;-57
2023/05/02 08:17:53;;;;;;;4.40;1.20;;;;;;;16.05;28.95;101082.70;109413;1273;22492;-47
2023/05/02 08:20:45;;;;;;;2.70;1.10;;;;;;;16.23;28.46;101081.81;109484;1269;22208;-48
2023/05/02 08:23:30;;;;;;;5.10;1.10;;;;;;;16.35;29.19;101076.92;109476;1279;23618;-58
2023/05/02 08:25:58;;;;;;;4.20;1.40;;;;;;;16.39;28.50;101080.57;109198;1276;23583;-55
2023/05/02 08:28:26;;;;;;;5.70;1.20;;;;;;;16.38;27.19;101076.17;108893;1272;22544;-56
2023/05/02 08:30:56;;;;;;;1.60;0.80;;;;;;;16.35;28.31;101076.21;109076;1272;22551;-56
2023/05/02 08:33:26;;;;;;;3.60;1.00;;;;;;;16.40;29.09;101077.92;108559;1275;22610;-47
2023/05/02 08:36:12;;;;;;;2.30;1.00;;;;;;;16.50;28.36;101077.80;108237;1273;24224;-56
2023/05/02 08:38:44;;;;;;;4.50;1.30;;;;;;;16.58;27.61;101076.84;108901;1273;22554;-48
2023/05/02 08:41:19;;;;;;;1.80;1.10;;;;;;;16.65;27.46;101076.56;109305;1273;22520;-56
2023/05/02 08:43:51;;;;;;;2.60;1.40;;;;;;;16.77;27.93;101072.58;108896;1272;22535;-47
2023/05/02 08:46:22;;;;;;;2.60;1.20;;;;;;;16.92;27.90;101070.41;108893;1278;22311;-49
2023/05/02 08:48:50;;;;;;;5.40;1.20;;;;;;;17.07;27.16;101072.85;108554;1273;22411;-56
2023/05/02 08:51:17;;;;;;;2.60;1.10;;;;;;;17.18;27.13;101072.52;109665;1277;22440;-56
2023/05/02 08:53:45;;;;;;;1.50;1.00;;;;;;;17.18;26.68;101072.17;109759;1279;22418;-56
2023/05/02 08:56:12;;;;;;;6.10;1.10;;;;;;;17.08;26.38;101070.90;109662;1273;22338;-47
2023/05/02 08:58:40;;;;;;;2.60;1.10;;;;;;;17.00;26.59;101066.61;108950;1273;22514;-48
2023/05/02 09:01:18;;;;;;;1.30;0.80;;;;;;;17.01;26.55;101070.48;109775;1272;23418;-47
2023/05/02 09:03:46;;;;;;;2.20;1.00;;;;;;;16.95;26.80;101067.55;108926;1278;22494;-49
2023/05/02 09:06:20;;;;;;;5.40;1.10;;;;;;;16.93;26.58;101064.77;108911;1278;23238;-48
2023/05/02 09:08:48;;;;;;;1.90;1.00;;;;;;;16.96;26.29;101062.27;109132;1273;22343;-57
2023/05/02 09:11:16;;;;;;;2.20;1.00;;;;;;;17.09;26.95;101057.13;109742;1276;22952;-57
2023/05/02 09:13:43;;;;;;;5.20;1.30;;;;;;;17.22;26.98;101052.18;109792;1273;22439;-57
2023/05/02 09:16:37;;;;;;;3.20;1.40;;;;;;;17.36;27.24;101053.73;109461;1273;22323;-56
2023/05/02 09:19:04;;;;;;;1.90;1.00;;;;;;;17.54;26.98;101053.43;109781;1276;22388;-56
2023/05/02 09:21:36;;;;;;;2.20;1.30;;;;;;;17.66;26.46;101051.48;109771;1273;22396;-56
2023/05/02 09:24:20;;;;;;;4.10;1.20;;;;;;;17.72;26.97;101052.27;109119;1273;22335;-48
2023/05/02 09:27:03;;;;;;;6.80;1.10;;;;;;;17.79;26.69;101054.09;109491;1277;22539;-57
2023/05/02 09:29:34;;;;;;;5.20;1.30;;;;;;;17.77;25.07;101055.36;109254;1278;22223;-56
2023/05/02 09:32:05;;;;;;;3.40;1.00;;;;;;;17.68;24.41;101053.03;109647;1273;22797;-56
2023/05/02 09:34:38;;;;;;;2.10;1.20;;;;;;;17.65;24.46;101053.96;109103;1272;22944;-47
2023/05/02 09:37:06;;;;;;;5.00;1.20;;;;;;;17.72;25.10;101052.43;109012;1277;22465;-48
2023/05/02 09:39:36;;;;;;;2.70;1.00;;;;;;;17.80;25.76;101046.66;108965;1272;22875;-48
2023/05/02 09:42:04;;;;;;;3.80;1.40;;;;;;;17.89;25.01;101050.03;109078;1274;22437;-49
2023/05/02 09:44:36;;;;;;;6.90;1.10;;;;;;;17.96;25.48;101048.48;109526;1273;22312;-47
2023/05/02 09:47:05;;;;;;;2.50;0.90;;;;;;;18.02;26.14;101049.08;108517;1279;22281;-56
2023/05/02 09:49:45;;;;;;;5.50;0.90;;;;;;;18.12;25.51;101045.38;109337;1273;22763;-47
2023/05/02 09:52:16;;;;;;;10.20;1.50;;;;;;;18.17;24.90;101043.86;109255;1257;22403;-55
2023/05/02 09:54:46;;;;;;;4.40;1.60;;;;;;;18.27;24.38;101044.18;108763;1273;22380;-58
2023/05/02 09:57:20;;;;;;;;;;;;;;;18.38;23.88;101042.03;108782;1273;23098;-60
2023/05/02 09:59:55;;;;;;;2.00;0.80;;;;;;;18.32;23.04;101041.27;108979;1275;22361;-50
2023/05/02 10:02:27;;;;;;;30.10;3.60;;;;;;;18.18;23.08;101037.13;108332;1273;22605;-48
2023/05/02 10:04:56;;;;;;;4.50;1.30;;;;;;;18.06;23.77;101039.30;108897;1278;22424;-47
2023/05/02 10:07:24;;;;;;;3.60;1.20;;;;;;;17.97;24.27;101034.70;109635;1281;22233;-57
2023/05/02 10:09:51;;;;;;;0.90;0.90;;;;;;;17.94;24.63;101039.70;109363;1274;22445;-52
2023/05/02 10:12:18;;;;;;;3.30;0.80;;;;;;;17.98;24.51;101035.03;108393;1276;22719;-56
2023/05/02 10:14:49;;;;;;;2.30;1.20;;;;;;;18.03;25.01;101031.07;109730;1276;23809;-56
2023/05/02 10:17:22;;;;;;;2.90;1.00;;;;;;;18.10;24.47;101030.92;109097;1276;25291;-54
2023/05/02 10:19:56;;;;;;;4.90;1.10;;;;;;;18.24;24.30;101029.76;109521;1276;22224;-47
2023/05/02 10:22:23;;;;;;;1.90;0.90;;;;;;;18.49;24.12;101028.02;109142;1281;22319;-46
2023/05/02 10:24:54;;;;;;;8.00;1.00;;;;;;;18.78;23.68;101031.47;109083;1276;23309;-46
2023/05/02 10:27:28;;;;;;;3.20;0.90;;;;;;;19.08;23.38;101029.04;108976;1276;23062;-51
2023/05/02 10:29:57;;;;;;;2.40;1.10;;;;;;;19.46;22.78;101028.45;108569;1281;22540;-48
2023/05/02 10:32:29;;;;;;;8.90;1.70;;;;;;;19.87;22.70;101025.48;109710;1276;22442;-55
2023/05/02 10:34:56;;;;;;;1.50;1.00;;;;;;;20.24;22.04;101030.30;109718;1279;22332;-54
2023/05/02 10:37:25;;;;;;;4.50;1.10;;;;;;;20.66;21.45;101022.73;109432;1276;22795;-47
2023/05/02 10:39:53;;;;;;;5.70;1.40;;;;;;;21.03;20.84;101018.21;109498;1277;22408;-46
2023/05/02 10:42:21;;;;;;;6.70;1.20;;;;;;;21.30;21.72;101018.58;109383;1276;22458;-45
2023/05/02 10:44:49;;;;;;;2.20;0.70;;;;;;;21.68;20.94;101020.55;108960;1273;23413;-56
2023/05/02 10:47:21;;;;;;;3.00;0.90;;;;;;;22.09;20.01;101015.52;109048;1281;22341;-57
2023/05/02 10:49:50;;;;;;;1.20;0.90;;;;;;;22.65;20.50;101016.45;109146;1281;22404;-47
2023/05/02 10:52:37;;;;;;;3.80;1.40;;;;;;;23.31;20.16;101018.46;108869;1276;23251;-57
2023/05/02 10:55:15;;;;;;;5.40;1.00;;;;;;;23.82;18.85;101019.52;109191;1273;22385;-57
2023/05/02 10:58:07;;;;;;;4.00;1.00;;;;;;;24.22;18.40;101019.01;108924;1275;22504;-56
2023/05/02 11:00:35;;;;;;;2.50;1.00;;;;;;;24.92;17.65;101017.75;108745;1275;22281;-55
2023/05/02 11:03:02;;;;;;;3.20;1.10;;;;;;;25.22;16.45;101016.82;109796;1273;22401;-55
2023/05/02 11:05:29;;;;;;;5.00;1.40;;;;;;;25.31;17.50;101012.23;109741;1281;22385;-56
2023/05/02 11:08:14;;;;;;;4.80;0.80;;;;;;;25.50;16.95;101009.88;109705;1281;22296;-57
2023/05/02 11:10:44;;;;;;;3.30;1.00;;;;;;;25.59;16.66;101009.77;109644;1281;23153;-57
2023/05/02 11:13:11;;;;;;;2.40;0.90;;;;;;;25.62;16.64;101007.66;109613;1281;22265;-58
2023/05/02 11:15:38;;;;;;;2.00;0.90;;;;;;;25.34;16.43;101010.14;109643;1281;22922;-58
2023/05/02 11:18:13;;;;;;;6.30;0.90;;;;;;;24.85;16.99;101004.88;109664;1281;22242;-57
2023/05/02 11:20:41;;;;;;;2.20;1.20;;;;;;;24.38;17.27;101005.27;109733;1281;22457;-57
2023/05/02 11:23:14;;;;;;;3.70;0.90;;;;;;;23.95;17.44;101002.21;109743;1281;22267;-57
2023/05/02 11:25:42;;;;;;;1.90;1.00;;;;;;;23.64;17.71;101000.89;109717;1281;22258;-56
2023/05/02 11:28:38;;;;;;;1.40;0.80;;;;;;;23.31;18.10;101002.27;109728;1281;22480;-58
2023/05/02 11:31:09;;;;;;;3.20;1.00;;;;;;;23.11;18.39;101001.69;109744;1277;23865;-58
2023/05/02 11:33:36;;;;;;;2.40;0.90;;;;;;;22.94;19.42;101002.90;109768;1281;22949;-55
2023/05/02 11:36:03;;;;;;;5.00;0.80;;;;;;;22.84;19.03;101003.08;109755;1273;22241;-56
2023/05/02 11:38:37;;;;;;;5.40;0.80;;;;;;;22.77;18.61;101001.61;109881;1281;23234;-57
2023/05/02 11:41:04;;;;;;;5.10;0.90;;;;;;;22.56;18.53;101000.09;109408;1275;22667;-58
2023/05/02 11:43:31;;;;;;;1.90;0.80;;;;;;;22.37;18.88;101003.32;108752;1278;22309;-58
2023/05/02 11:46:00;;;;;;;3.90;1.10;;;;;;;22.31;19.82;101002.48;109887;1275;23148;-59
2023/05/02 11:48:28;;;;;;;2.60;1.10;;;;;;;22.19;19.33;101002.40;109730;1273;22547;-48
2023/05/02 11:51:03;;;;;;;6.10;0.90;;;;;;;22.14;19.09;101002.56;109771;1276;22233;-49
2023/05/02 11:53:32;;;;;;;1.50;1.00;;;;;;;22.06;18.82;101001.25;109899;1281;22228;-56
2023/05/02 11:56:00;;;;;;;1.30;0.60;;;;;;;21.97;19.17;101002.08;109834;1281;22288;-49
2023/05/02 11:58:33;;;;;;;2.50;0.70;;;;;;;21.98;19.34;100999.04;109815;1275;23186;-47
2023/05/02 12:01:13;;;;;;;4.70;0.80;;;;;;;21.98;19.46;101001.88;109766;1278;22159;-57
2023/05/02 12:03:41;;;;;;;0.80;0.60;;;;;;;21.91;19.56;100998.06;109868;1281;22281;-57
2023/05/02 12:06:17;;;;;;;7.80;1.30;;;;;;;21.87;19.42;100997.33;109883;1278;22244;-49
2023/05/02 12:08:45;;;;;;;2.10;0.90;;;;;;;21.71;19.23;100994.32;109886;1281;22273;-47
2023/05/02 12:11:14;;;;;;;3.20;0.90;;;;;;;21.56;19.01;100987.76;109883;1280;22921;-47
2023/05/02 12:13:48;;;;;;;2.80;1.10;;;;;;;21.50;18.88;100987.77;109888;1281;22261;-46
2023/05/02 12:16:16;;;;;;;3.20;0.80;;;;;;;21.35;18.67;100983.48;109904;1281;22395;-48
2023/05/02 12:18:44;;;;;;;4.00;0.60;;;;;;;21.21;19.31;100984.64;109896;1281;22278;-58
